メインページ
METAR-TAF:

METAR-TAF

空港 :

ポートオブスペイン, Trinidad, トリニダード・トバゴ

緯度: 10-37N, 経度: 061-21W, 海抜: 12m

現時点の気象観測

当レポートは35分前の21:00(UTC)に作成
東/南東の風 12kt
気温 30°C
湿度 62%
気圧 1010 hPa
視程10km以上
高度3000ftの雲はほとんどない

METAR: TTPP 232100Z 12012KT 9999 FEW030 30/22 Q1010 NOSIG

時間: 17:35 (21:35 UTC)

予報

当レポートは5時間35分前の16:00(UTC)に作成
予報は23日の 18時(UTC)から 24日の 18時(UTC)まで有効
東/南東の風 15kt
視程10km以上
高度2800ftの雲は散在している
23日の 23時(UTC)から 24日の 02時(UTC)まで徐々に
の風 5kt
高度1600ftの雲はほとんどない
24日の 12時(UTC)から 24日の 14時(UTC)まで徐々に
東/南東の風 15kt
高度1800ftの雲は散在している

TAF: TTPP 231600Z 2318/2418 12015KT 9999 SCT028 BECMG 2323/2402 10005KT FEW016 BECMG 2412/2414 11015KT SCT018

4,000以上の空港の気象観測と天気予報(METAR報とTAF報)

利用可能な観測所は地図上に黄色い丸と赤い丸で示す。

丸の上にカーソルを重ねると観測所名を参照できる。

次にクリックすると気象観測と天気予報を参照できる。

マップの切り替え:黒色「×」印の緑ボタンをクリックして拡大、「-」印の緑ボタンをクリックして縮小、緑色の三角印をクリックして隣りの地図に切り替え


METAR-TAF: